sensor_id;sensor_type;location;lat;lon;timestamp;pressure;altitude;pressure_sealevel;temperature;humidity
58534;BME280;44109;52.398;7.024;2023-04-19T00:02:23;102635.41;;;11.50;100.00
58534;BME280;44109;52.398;7.024;2023-04-19T00:04:51;102634.06;;;11.48;100.00
58534;BME280;44109;52.398;7.024;2023-04-19T00:07:20;102641.44;;;11.43;100.00
58534;BME280;44109;52.398;7.024;2023-04-19T00:09:48;102642.59;;;11.34;100.00
58534;BME280;44109;52.398;7.024;2023-04-19T00:12:15;102633.94;;;11.35;100.00
58534;BME280;44109;52.398;7.024;2023-04-19T00:14:43;102634.47;;;11.20;100.00
58534;BME280;44109;52.398;7.024;2023-04-19T00:17:12;102631.03;;;11.23;100.00
58534;BME280;44109;52.398;7.024;2023-04-19T00:19:41;102622.88;;;11.18;100.00
58534;BME280;44109;52.398;7.024;2023-04-19T00:22:09;102614.72;;;11.13;100.00
58534;BME280;44109;52.398;7.024;2023-04-19T00:24:37;102629.09;;;11.15;100.00
58534;BME280;44109;52.398;7.024;2023-04-19T00:27:04;102624.81;;;11.26;100.00
58534;BME280;44109;52.398;7.024;2023-04-19T00:29:32;102624.69;;;11.14;100.00
58534;BME280;44109;52.398;7.024;2023-04-19T00:32:00;102621.91;;;11.14;100.00
58534;BME280;44109;52.398;7.024;2023-04-19T00:34:32;102619.25;;;11.26;100.00
58534;BME280;44109;52.398;7.024;2023-04-19T00:36:59;102611.09;;;11.21;100.00
58534;BME280;44109;52.398;7.024;2023-04-19T00:39:29;102613.91;;;11.04;100.00
58534;BME280;44109;52.398;7.024;2023-04-19T00:41:57;102612.78;;;11.05;100.00
58534;BME280;44109;52.398;7.024;2023-04-19T00:44:26;102610.31;;;11.03;100.00
58534;BME280;44109;52.398;7.024;2023-04-19T00:46:55;102610.31;;;11.03;100.00
58534;BME280;44109;52.398;7.024;2023-04-19T00:49:23;102604.28;;;10.92;100.00
58534;BME280;44109;52.398;7.024;2023-04-19T00:51:53;102610.63;;;11.02;100.00
58534;BME280;44109;52.398;7.024;2023-04-19T00:54:22;102610.31;;;11.03;100.00
58534;BME280;44109;52.398;7.024;2023-04-19T00:56:51;102611.94;;;11.13;100.00
58534;BME280;44109;52.398;7.024;2023-04-19T00:59:19;102616.50;;;11.17;99.97
58534;BME280;44109;52.398;7.024;2023-04-19T01:01:47;102613.59;;;11.05;100.00
58534;BME280;44109;52.398;7.024;2023-04-19T01:04:15;102619.44;;;11.12;99.36
58534;BME280;44109;52.398;7.024;2023-04-19T01:06:43;102609.31;;;11.16;99.10
58534;BME280;44109;52.398;7.024;2023-04-19T01:09:12;102613.41;;;11.19;98.97
58534;BME280;44109;52.398;7.024;2023-04-19T01:11:39;102613.41;;;11.19;97.26
58534;BME280;44109;52.398;7.024;2023-04-19T01:14:07;102608.81;;;11.23;98.57
58534;BME280;44109;52.398;7.024;2023-04-19T01:16:35;102608.13;;;11.26;98.00
58534;BME280;44109;52.398;7.024;2023-04-19T01:19:04;102615.03;;;11.20;98.03
58534;BME280;44109;52.398;7.024;2023-04-19T01:21:31;102614.03;;;11.16;96.43
58534;BME280;44109;52.398;7.024;2023-04-19T01:24:00;102607.69;;;11.07;97.16
58534;BME280;44109;52.398;7.024;2023-04-19T01:26:28;102600.97;;;11.08;97.30
58534;BME280;44109;52.398;7.024;2023-04-19T01:28:55;102604.63;;;11.00;95.98
58534;BME280;44109;52.398;7.024;2023-04-19T01:31:23;102608.19;;;11.00;96.59
58534;BME280;44109;52.398;7.024;2023-04-19T01:33:51;102609.19;;;10.96;95.30
58534;BME280;44109;52.398;7.024;2023-04-19T01:36:18;102610.81;;;10.97;96.23
58534;BME280;44109;52.398;7.024;2023-04-19T01:38:46;102609.19;;;10.96;95.59
58534;BME280;44109;52.398;7.024;2023-04-19T01:41:15;102610.34;;;10.95;95.32
58534;BME280;44109;52.398;7.024;2023-04-19T01:43:43;102609.19;;;10.96;94.48
58534;BME280;44109;52.398;7.024;2023-04-19T01:46:10;102599.88;;;10.91;95.56
58534;BME280;44109;52.398;7.024;2023-04-19T01:48:38;102626.50;;;11.01;94.57
58534;BME280;44109;52.398;7.024;2023-04-19T01:51:06;102613.25;;;10.98;93.91
58534;BME280;44109;52.398;7.024;2023-04-19T01:53:33;102615.22;;;11.06;94.13
58534;BME280;44109;52.398;7.024;2023-04-19T01:56:01;102619.94;;;11.06;92.50
58534;BME280;44109;52.398;7.024;2023-04-19T01:58:30;102610.34;;;10.95;92.87
58534;BME280;44109;52.398;7.024;2023-04-19T02:00:57;102621.59;;;10.89;91.74
58534;BME280;44109;52.398;7.024;2023-04-19T02:03:25;102616.38;;;10.97;91.60
58534;BME280;44109;52.398;7.024;2023-04-19T02:05:53;102608.84;;;10.88;90.40
58534;BME280;44109;52.398;7.024;2023-04-19T02:08:20;102611.16;;;10.86;90.73
58534;BME280;44109;52.398;7.024;2023-04-19T02:10:48;102622.25;;;10.95;89.65
58534;BME280;44109;52.398;7.024;2023-04-19T02:13:15;102619.47;;;10.95;88.59
58534;BME280;44109;52.398;7.024;2023-04-19T02:15:44;102605.91;;;10.93;89.66
58534;BME280;44109;52.398;7.024;2023-04-19T02:18:12;102610.63;;;11.02;87.94
58534;BME280;44109;52.398;7.024;2023-04-19T02:20:40;102613.44;;;10.84;86.97
58534;BME280;44109;52.398;7.024;2023-04-19T02:23:07;102609.84;;;10.75;87.88
58534;BME280;44109;52.398;7.024;2023-04-19T02:25:35;102610.66;;;10.76;87.39
58534;BME280;44109;52.398;7.024;2023-04-19T02:28:03;102611.31;;;10.81;86.57
58534;BME280;44109;52.398;7.024;2023-04-19T02:30:30;102614.06;;;10.90;86.34
58534;BME280;44109;52.398;7.024;2023-04-19T02:32:59;102614.91;;;10.73;85.43
58534;BME280;44109;52.398;7.024;2023-04-19T02:35:27;102611.31;;;10.81;86.17
58534;BME280;44109;52.398;7.024;2023-04-19T02:37:55;102624.69;;;10.97;87.53
58534;BME280;44109;52.398;7.024;2023-04-19T02:40:22;102620.47;;;10.90;85.50
58534;BME280;44109;52.398;7.024;2023-04-19T02:42:51;102618.97;;;10.93;85.42
58534;BME280;44109;52.398;7.024;2023-04-19T02:45:18;102629.09;;;10.98;85.16
58534;BME280;44109;52.398;7.024;2023-04-19T02:47:46;102627.31;;;11.02;86.04
58534;BME280;44109;52.398;7.024;2023-04-19T02:50:15;102626.97;;;11.03;85.53
58534;BME280;44109;52.398;7.024;2023-04-19T02:52:43;102620.59;;;11.03;85.90
58534;BME280;44109;52.398;7.024;2023-04-19T02:55:11;102626.47;;;11.10;85.43
58534;BME280;44109;52.398;7.024;2023-04-19T02:57:38;102623.38;;;11.03;85.53
58534;BME280;44109;52.398;7.024;2023-04-19T03:00:07;102630.09;;;11.02;86.43
58534;BME280;44109;52.398;7.024;2023-04-19T03:02:36;102626.50;;;11.01;83.36
58534;BME280;44109;52.398;7.024;2023-04-19T03:05:05;102622.41;;;10.99;83.45
58534;BME280;44109;52.398;7.024;2023-04-19T03:07:34;102633.19;;;10.83;78.59
58534;BME280;44109;52.398;7.024;2023-04-19T03:10:03;102627.63;;;10.74;79.65
58534;BME280;44109;52.398;7.024;2023-04-19T03:12:31;102630.22;;;10.53;78.63
58534;BME280;44109;52.398;7.024;2023-04-19T03:14:58;102627.31;;;10.67;78.91
58534;BME280;44109;52.398;7.024;2023-04-19T03:17:26;102620.94;;;10.75;78.51
58534;BME280;44109;52.398;7.024;2023-04-19T03:19:54;102627.63;;;10.74;77.18
58534;BME280;44109;52.398;7.024;2023-04-19T03:22:22;102625.03;;;10.69;76.63
58534;BME280;44109;52.398;7.024;2023-04-19T03:24:51;102628.28;;;10.80;76.81
58534;BME280;44109;52.398;7.024;2023-04-19T03:27:19;102629.09;;;10.72;73.80
58534;BME280;44109;52.398;7.024;2023-04-19T03:29:46;102625.03;;;10.69;74.39
58534;BME280;44109;52.398;7.024;2023-04-19T03:32:14;102625.38;;;10.68;73.05
58534;BME280;44109;52.398;7.024;2023-04-19T03:34:41;102592.03;;;10.41;74.15
58534;BME280;44109;52.398;7.024;2023-04-19T03:37:09;102624.22;;;10.77;73.42
58534;BME280;44109;52.398;7.024;2023-04-19T03:39:37;102614.56;;;10.66;70.75
58534;BME280;44109;52.398;7.024;2023-04-19T03:42:06;102631.56;;;10.56;70.74
58534;BME280;44109;52.398;7.024;2023-04-19T03:44:33;102625.63;;;10.40;71.77
58534;BME280;44109;52.398;7.024;2023-04-19T03:47:01;102623.88;;;10.53;70.99
58534;BME280;44109;52.398;7.024;2023-04-19T03:49:28;102627.63;;;10.57;70.88
58534;BME280;44109;52.398;7.024;2023-04-19T03:51:56;102635.25;;;10.25;67.98
58534;BME280;44109;52.398;7.024;2023-04-19T03:54:24;102629.06;;;10.28;65.99
58534;BME280;44109;52.398;7.024;2023-04-19T03:56:52;102621.47;;;10.11;64.61
58534;BME280;44109;52.398;7.024;2023-04-19T03:59:21;102639.19;;;9.93;65.57
58534;BME280;44109;52.398;7.024;2023-04-19T04:01:48;102629.22;;;9.83;63.96
58534;BME280;44109;52.398;7.024;2023-04-19T04:04:16;102628.44;;;9.91;64.93
58534;BME280;44109;52.398;7.024;2023-04-19T04:06:43;102631.50;;;9.81;65.25
58534;BME280;44109;52.398;7.024;2023-04-19T04:09:11;102629.22;;;9.52;64.90
58534;BME280;44109;52.398;7.024;2023-04-19T04:11:39;102639.63;;;9.47;65.66
58534;BME280;44109;52.398;7.024;2023-04-19T04:14:06;102640.41;;;9.16;63.60
58534;BME280;44109;52.398;7.024;2023-04-19T04:16:35;102644.78;;;9.08;63.04
58534;BME280;44109;52.398;7.024;2023-04-19T04:19:03;102632.63;;;8.96;64.63
58534;BME280;44109;52.398;7.024;2023-04-19T04:21:30;102639.22;;;8.86;63.82
58534;BME280;44109;52.398;7.024;2023-04-19T04:23:58;102640.91;;;8.73;62.87
58534;BME280;44109;52.398;7.024;2023-04-19T04:26:27;102650.56;;;8.62;64.17
58534;BME280;44109;52.398;7.024;2023-04-19T04:28:55;102652.66;;;8.43;64.98
58534;BME280;44109;52.398;7.024;2023-04-19T04:31:23;102622.34;;;8.24;65.47
58534;BME280;44109;52.398;7.024;2023-04-19T04:33:52;102653.91;;;8.36;65.55
58534;BME280;44109;52.398;7.024;2023-04-19T04:36:20;102653.06;;;8.22;66.14
58534;BME280;44109;52.398;7.024;2023-04-19T04:38:48;102653.06;;;8.22;66.65
58534;BME280;44109;52.398;7.024;2023-04-19T04:41:16;102658.38;;;8.19;65.63
58534;BME280;44109;52.398;7.024;2023-04-19T04:43:45;102655.31;;;8.06;66.35
58534;BME280;44109;52.398;7.024;2023-04-19T04:46:16;102654.28;;;7.88;65.94
58534;BME280;44109;52.398;7.024;2023-04-19T04:48:44;102658.19;;;7.87;65.54
58534;BME280;44109;52.398;7.024;2023-04-19T04:51:13;102664.41;;;7.79;65.30
58534;BME280;44109;52.398;7.024;2023-04-19T04:53:40;102661.75;;;7.74;66.93
58534;BME280;44109;52.398;7.024;2023-04-19T04:56:08;102668.78;;;7.67;65.58
58534;BME280;44109;52.398;7.024;2023-04-19T04:58:35;102672.88;;;7.69;65.38
58534;BME280;44109;52.398;7.024;2023-04-19T05:01:03;102660.41;;;7.72;66.72
58534;BME280;44109;52.398;7.024;2023-04-19T05:03:31;102666.72;;;7.58;65.97
58534;BME280;44109;52.398;7.024;2023-04-19T05:05:59;102670.44;;;7.68;67.47
58534;BME280;44109;52.398;7.024;2023-04-19T05:08:28;102671.84;;;7.65;69.97
58534;BME280;44109;52.398;7.024;2023-04-19T05:10:56;102676.59;;;7.78;69.19
58534;BME280;44109;52.398;7.024;2023-04-19T05:13:23;102682.22;;;7.87;69.67
58534;BME280;44109;52.398;7.024;2023-04-19T05:15:51;102683.44;;;7.95;70.38
58534;BME280;44109;52.398;7.024;2023-04-19T05:18:19;102683.06;;;8.01;68.73
58534;BME280;44109;52.398;7.024;2023-04-19T05:20:46;102684.56;;;8.21;69.41
58534;BME280;44109;52.398;7.024;2023-04-19T05:23:14;102679.47;;;8.28;67.27
58534;BME280;44109;52.398;7.024;2023-04-19T05:25:43;102679.84;;;8.35;nan
58534;BME280;44109;52.398;7.024;2023-04-19T05:28:11;102685.19;;;8.59;69.66
58534;BME280;44109;52.398;7.024;2023-04-19T05:30:39;102694.63;;;8.72;67.37
58534;BME280;44109;52.398;7.024;2023-04-19T05:33:06;102694.00;;;8.98;68.34
58534;BME280;44109;52.398;7.024;2023-04-19T05:35:34;102688.59;;;8.93;62.44
58534;BME280;44109;52.398;7.024;2023-04-19T05:38:01;102691.94;;;9.03;62.58
58534;BME280;44109;52.398;7.024;2023-04-19T05:40:29;102690.06;;;9.35;61.46
58534;BME280;44109;52.398;7.024;2023-04-19T05:42:58;102689.09;;;9.62;62.01
58534;BME280;44109;52.398;7.024;2023-04-19T05:45:26;102693.53;;;9.72;59.81
58534;BME280;44109;52.398;7.024;2023-04-19T05:47:53;102686.66;;;9.91;60.20
58534;BME280;44109;52.398;7.024;2023-04-19T05:50:21;102678.91;;;10.11;59.55
58534;BME280;44109;52.398;7.024;2023-04-19T05:52:49;102688.31;;;10.01;56.60
58534;BME280;44109;52.398;7.024;2023-04-19T05:55:17;102680.84;;;10.10;58.59
58534;BME280;44109;52.398;7.024;2023-04-19T05:57:44;102689.47;;;10.49;56.27
58534;BME280;44109;52.398;7.024;2023-04-19T06:00:14;102688.22;;;10.98;58.87
58534;BME280;44109;52.398;7.024;2023-04-19T06:02:42;102687.22;;;10.85;55.25
58534;BME280;44109;52.398;7.024;2023-04-19T06:05:11;102687.75;;;11.22;56.19
58534;BME280;44109;52.398;7.024;2023-04-19T06:07:39;102682.84;;;11.19;54.04
58534;BME280;44109;52.398;7.024;2023-04-19T06:10:08;102689.84;;;10.73;53.07
58534;BME280;44109;52.398;7.024;2023-04-19T06:12:36;102684.63;;;11.32;55.08
58534;BME280;44109;52.398;7.024;2023-04-19T06:15:05;102683.66;;;11.28;51.73
58534;BME280;44109;52.398;7.024;2023-04-19T06:17:35;102686.25;;;11.33;53.75
58534;BME280;44109;52.398;7.024;2023-04-19T06:20:03;102682.81;;;11.36;51.18
58534;BME280;44109;52.398;7.024;2023-04-19T06:22:33;102684.41;;;11.63;53.14
58534;BME280;44109;52.398;7.024;2023-04-19T06:25:01;102677.81;;;11.85;50.84
58534;BME280;44109;52.398;7.024;2023-04-19T06:27:29;102678.13;;;11.92;51.53
58534;BME280;44109;52.398;7.024;2023-04-19T06:29:56;102676.97;;;11.93;49.75
58534;BME280;44109;52.398;7.024;2023-04-19T06:32:26;102677.66;;;11.73;48.61
58534;BME280;44109;52.398;7.024;2023-04-19T06:34:54;102681.09;;;11.87;50.38
58534;BME280;44109;52.398;7.024;2023-04-19T06:37:22;102676.09;;;11.55;49.51
58534;BME280;44109;52.398;7.024;2023-04-19T06:39:50;102683.50;;;11.98;51.28
58534;BME280;44109;52.398;7.024;2023-04-19T06:42:17;102678.16;;;12.22;49.99
58534;BME280;44109;52.398;7.024;2023-04-19T06:44:45;102673.66;;;12.09;48.55
58534;BME280;44109;52.398;7.024;2023-04-19T06:47:13;102679.00;;;12.14;49.04
58534;BME280;44109;52.398;7.024;2023-04-19T06:49:41;102692.00;;;12.01;47.48
58534;BME280;44109;52.398;7.024;2023-04-19T06:52:10;102682.72;;;11.71;49.10
58534;BME280;44109;52.398;7.024;2023-04-19T06:54:37;102686.81;;;11.91;49.10
58534;BME280;44109;52.398;7.024;2023-04-19T06:57:05;102672.78;;;11.61;49.09
58534;BME280;44109;52.398;7.024;2023-04-19T06:59:32;102691.06;;;11.88;48.20
58534;BME280;44109;52.398;7.024;2023-04-19T07:02:05;102689.59;;;11.91;47.31
58534;BME280;44109;52.398;7.024;2023-04-19T07:04:33;102689.94;;;12.19;49.25
58534;BME280;44109;52.398;7.024;2023-04-19T07:07:01;102684.88;;;12.51;46.65
58534;BME280;44109;52.398;7.024;2023-04-19T07:09:30;102678.22;;;12.85;48.64
58534;BME280;44109;52.398;7.024;2023-04-19T07:11:58;102687.44;;;13.39;47.25
58534;BME280;44109;52.398;7.024;2023-04-19T07:14:26;102682.00;;;13.43;45.66
58534;BME280;44109;52.398;7.024;2023-04-19T07:16:54;102671.66;;;13.77;46.85
58534;BME280;44109;52.398;7.024;2023-04-19T07:19:21;102672.34;;;14.35;45.14
58534;BME280;44109;52.398;7.024;2023-04-19T07:21:50;102669.09;;;13.96;45.40
58534;BME280;44109;52.398;7.024;2023-04-19T07:24:18;102661.28;;;13.65;43.63
58534;BME280;44109;52.398;7.024;2023-04-19T07:26:47;102670.03;;;13.42;45.76
58534;BME280;44109;52.398;7.024;2023-04-19T07:29:15;102665.91;;;13.61;43.53
58534;BME280;44109;52.398;7.024;2023-04-19T07:31:42;102682.34;;;13.41;44.30
58534;BME280;44109;52.398;7.024;2023-04-19T07:34:10;102668.41;;;13.41;43.86
58534;BME280;44109;52.398;7.024;2023-04-19T07:36:37;102680.13;;;13.92;44.19
58534;BME280;44109;52.398;7.024;2023-04-19T07:39:05;102672.16;;;13.58;43.49
58534;BME280;44109;52.398;7.024;2023-04-19T07:41:33;102660.81;;;13.75;41.87
58534;BME280;44109;52.398;7.024;2023-04-19T07:44:02;102655.69;;;13.65;42.28
58534;BME280;44109;52.398;7.024;2023-04-19T07:46:29;102658.50;;;13.77;42.93
58534;BME280;44109;52.398;7.024;2023-04-19T07:48:57;102650.63;;;14.28;41.93
58534;BME280;44109;52.398;7.024;2023-04-19T07:51:24;102650.28;;;15.22;43.54
58534;BME280;44109;52.398;7.024;2023-04-19T07:53:52;102654.22;;;14.93;40.35
58534;BME280;44109;52.398;7.024;2023-04-19T07:56:21;102658.66;;;14.54;40.64
58534;BME280;44109;52.398;7.024;2023-04-19T07:58:51;102648.06;;;14.23;40.55
58534;BME280;44109;52.398;7.024;2023-04-19T08:01:20;102638.19;;;14.01;39.99
58534;BME280;44109;52.398;7.024;2023-04-19T08:03:47;102638.97;;;14.38;41.09
58534;BME280;44109;52.398;7.024;2023-04-19T08:06:15;102638.97;;;15.19;40.17
58534;BME280;44109;52.398;7.024;2023-04-19T08:08:43;102640.34;;;15.69;40.41
58534;BME280;44109;52.398;7.024;2023-04-19T08:11:11;102641.97;;;15.70;38.01
58534;BME280;44109;52.398;7.024;2023-04-19T08:13:39;102649.53;;;15.54;38.87
58534;BME280;44109;52.398;7.024;2023-04-19T08:16:06;102655.53;;;15.12;38.62
58534;BME280;44109;52.398;7.024;2023-04-19T08:18:35;102643.16;;;14.20;37.67
58534;BME280;44109;52.398;7.024;2023-04-19T08:21:03;102646.19;;;14.64;37.97
58534;BME280;44109;52.398;7.024;2023-04-19T08:23:31;102654.69;;;14.95;38.89
58534;BME280;44109;52.398;7.024;2023-04-19T08:25:58;102650.16;;;15.19;37.80
58534;BME280;44109;52.398;7.024;2023-04-19T08:28:26;102644.16;;;15.33;38.42
58534;BME280;44109;52.398;7.024;2023-04-19T08:30:54;102652.25;;;15.22;36.88
58534;BME280;44109;52.398;7.024;2023-04-19T08:33:21;102666.50;;;14.77;35.34
58534;BME280;44109;52.398;7.024;2023-04-19T08:35:50;102639.28;;;14.74;34.46
58534;BME280;44109;52.398;7.024;2023-04-19T08:38:18;102636.41;;;14.45;34.77
58534;BME280;44109;52.398;7.024;2023-04-19T08:40:50;102633.16;;;14.56;35.09
58534;BME280;44109;52.398;7.024;2023-04-19T08:43:20;102637.03;;;15.07;34.12
58534;BME280;44109;52.398;7.024;2023-04-19T08:45:48;102640.91;;;15.03;34.48
58534;BME280;44109;52.398;7.024;2023-04-19T08:48:17;102636.84;;;14.72;33.48
58534;BME280;44109;52.398;7.024;2023-04-19T08:50:44;102647.69;;;14.61;33.74
58534;BME280;44109;52.398;7.024;2023-04-19T08:53:14;102641.28;;;14.61;34.86
58534;BME280;44109;52.398;7.024;2023-04-19T08:55:43;102645.13;;;14.44;33.24
58534;BME280;44109;52.398;7.024;2023-04-19T08:58:11;102643.13;;;14.69;35.86
58534;BME280;44109;52.398;7.024;2023-04-19T09:00:39;102635.25;;;14.99;35.49
58534;BME280;44109;52.398;7.024;2023-04-19T09:03:07;102643.97;;;14.45;33.33
58534;BME280;44109;52.398;7.024;2023-04-19T09:05:34;102635.38;;;14.01;32.45
58534;BME280;44109;52.398;7.024;2023-04-19T09:08:22;102623.53;;;14.04;34.16
58534;BME280;44109;52.398;7.024;2023-04-19T09:10:53;102625.50;;;14.16;32.69
58534;BME280;44109;52.398;7.024;2023-04-19T09:13:22;102625.16;;;14.82;33.33
58534;BME280;44109;52.398;7.024;2023-04-19T09:15:51;102620.22;;;15.19;33.23
58534;BME280;44109;52.398;7.024;2023-04-19T09:18:19;102615.72;;;15.15;32.76
58534;BME280;44109;52.398;7.024;2023-04-19T09:20:47;102616.94;;;15.61;34.47
58534;BME280;44109;52.398;7.024;2023-04-19T09:23:16;102621.19;;;16.03;32.29
58534;BME280;44109;52.398;7.024;2023-04-19T09:25:52;102599.53;;;15.36;31.65
58534;BME280;44109;52.398;7.024;2023-04-19T09:28:22;102600.22;;;15.33;33.06
58534;BME280;44109;52.398;7.024;2023-04-19T09:30:50;102611.28;;;15.14;30.84
58534;BME280;44109;52.398;7.024;2023-04-19T09:33:30;102591.78;;;15.02;30.90
58534;BME280;44109;52.398;7.024;2023-04-19T09:35:59;102586.16;;;14.86;31.28
58534;BME280;44109;52.398;7.024;2023-04-19T09:38:28;102576.81;;;15.54;32.82
58534;BME280;44109;52.398;7.024;2023-04-19T09:41:07;102583.75;;;15.91;33.09
58534;BME280;44109;52.398;7.024;2023-04-19T09:43:35;102586.00;;;16.02;31.11
58534;BME280;44109;52.398;7.024;2023-04-19T09:46:03;102587.47;;;15.80;29.49
58534;BME280;44109;52.398;7.024;2023-04-19T09:48:31;102587.91;;;15.50;31.80
58534;BME280;44109;52.398;7.024;2023-04-19T09:51:00;102577.66;;;15.10;30.57
58534;BME280;44109;52.398;7.024;2023-04-19T09:53:29;102574.31;;;15.20;29.91
58534;BME280;44109;52.398;7.024;2023-04-19T09:56:00;102582.75;;;15.36;31.78
58534;BME280;44109;52.398;7.024;2023-04-19T09:58:29;102576.88;;;14.97;30.21
58534;BME280;44109;52.398;7.024;2023-04-19T10:00:58;102570.97;;;15.15;31.43
58534;BME280;44109;52.398;7.024;2023-04-19T10:03:28;102569.47;;;15.17;30.86
58534;BME280;44109;52.398;7.024;2023-04-19T10:05:57;102559.19;;;15.21;31.76
58534;BME280;44109;52.398;7.024;2023-04-19T10:08:26;102567.16;;;15.35;31.65
58534;BME280;44109;52.398;7.024;2023-04-19T10:10:55;102571.84;;;15.03;31.52
58534;BME280;44109;52.398;7.024;2023-04-19T10:13:23;102565.59;;;15.22;31.80
58534;BME280;44109;52.398;7.024;2023-04-19T10:15:53;102564.59;;;15.14;30.99
58534;BME280;44109;52.398;7.024;2023-04-19T10:18:22;102558.13;;;15.26;32.88
58534;BME280;44109;52.398;7.024;2023-04-19T10:20:53;102545.13;;;15.18;32.83
58534;BME280;44109;52.398;7.024;2023-04-19T10:23:25;102547.53;;;15.04;31.87
58534;BME280;44109;52.398;7.024;2023-04-19T10:25:55;102546.66;;;15.31;31.91
58534;BME280;44109;52.398;7.024;2023-04-19T10:28:26;102528.84;;;15.08;32.45
58534;BME280;44109;52.398;7.024;2023-04-19T10:30:59;102531.66;;;15.08;31.05
58534;BME280;44109;52.398;7.024;2023-04-19T10:33:30;102526.69;;;15.17;30.27
58534;BME280;44109;52.398;7.024;2023-04-19T10:36:02;102522.13;;;15.09;31.39
58534;BME280;44109;52.398;7.024;2023-04-19T10:38:38;102506.25;;;15.13;29.74
58534;BME280;44109;52.398;7.024;2023-04-19T10:41:09;102509.00;;;14.97;28.40
58534;BME280;44109;52.398;7.024;2023-04-19T10:43:44;102484.13;;;15.08;31.04
58534;BME280;44109;52.398;7.024;2023-04-19T10:46:16;102503.53;;;15.01;28.95
58534;BME280;44109;52.398;7.024;2023-04-19T10:49:04;102495.41;;;14.95;29.45
58534;BME280;44109;52.398;7.024;2023-04-19T10:51:34;102491.06;;;14.98;29.64
58534;BME280;44109;52.398;7.024;2023-04-19T10:54:04;102494.31;;;15.16;29.74
58534;BME280;44109;52.398;7.024;2023-04-19T10:56:58;102476.13;;;15.22;29.43
58534;BME280;44109;52.398;7.024;2023-04-19T10:59:30;102471.06;;;15.12;29.83
58534;BME280;44109;52.398;7.024;2023-04-19T11:02:00;102480.06;;;15.21;29.27
58534;BME280;44109;52.398;7.024;2023-04-19T11:04:59;102461.06;;;14.95;28.52
58534;BME280;44109;52.398;7.024;2023-04-19T11:07:36;102452.25;;;15.09;28.98
58534;BME280;44109;52.398;7.024;2023-04-19T11:10:06;102452.13;;;15.21;28.59
58534;BME280;44109;52.398;7.024;2023-04-19T11:12:35;102443.72;;;15.21;29.40
58534;BME280;44109;52.398;7.024;2023-04-19T11:15:05;102444.72;;;15.44;29.41
58534;BME280;44109;52.398;7.024;2023-04-19T11:17:35;102439.75;;;15.54;30.01
58534;BME280;44109;52.398;7.024;2023-04-19T11:20:05;102448.41;;;15.64;28.55
58534;BME280;44109;52.398;7.024;2023-04-19T11:22:37;102447.59;;;15.64;29.12
58534;BME280;44109;52.398;7.024;2023-04-19T11:25:08;102439.28;;;15.52;28.27
58534;BME280;44109;52.398;7.024;2023-04-19T11:27:37;102443.16;;;15.47;29.99
58534;BME280;44109;52.398;7.024;2023-04-19T11:30:07;102430.47;;;15.85;29.04
58534;BME280;44109;52.398;7.024;2023-04-19T11:32:43;102432.16;;;15.70;28.92
58534;BME280;44109;52.398;7.024;2023-04-19T11:35:12;102430.53;;;15.88;28.13
58534;BME280;44109;52.398;7.024;2023-04-19T11:37:39;102425.47;;;15.94;30.12
58534;BME280;44109;52.398;7.024;2023-04-19T11:40:07;102432.50;;;16.04;30.21
58534;BME280;44109;52.398;7.024;2023-04-19T11:42:40;102423.50;;;15.94;30.61
58534;BME280;44109;52.398;7.024;2023-04-19T11:45:08;102425.38;;;15.71;30.16
58534;BME280;44109;52.398;7.024;2023-04-19T11:47:47;102411.31;;;15.52;29.31
58534;BME280;44109;52.398;7.024;2023-04-19T11:50:32;102412.38;;;14.96;30.43
58534;BME280;44109;52.398;7.024;2023-04-19T11:53:12;102422.00;;;15.30;31.06
58534;BME280;44109;52.398;7.024;2023-04-19T11:55:42;102411.91;;;15.61;32.09
58534;BME280;44109;52.398;7.024;2023-04-19T11:58:27;102411.16;;;15.44;31.89
58534;BME280;44109;52.398;7.024;2023-04-19T12:01:02;102415.78;;;15.37;31.61
58534;BME280;44109;52.398;7.024;2023-04-19T12:03:34;102408.91;;;15.34;31.47
58534;BME280;44109;52.398;7.024;2023-04-19T12:06:10;102391.19;;;15.27;32.51
58534;BME280;44109;52.398;7.024;2023-04-19T12:08:42;102411.72;;;15.34;34.19
58534;BME280;44109;52.398;7.024;2023-04-19T12:11:12;102411.38;;;15.71;32.95
58534;BME280;44109;52.398;7.024;2023-04-19T12:13:41;102401.78;;;15.37;33.55
58534;BME280;44109;52.398;7.024;2023-04-19T12:16:09;102390.25;;;15.73;34.19
58534;BME280;44109;52.398;7.024;2023-04-19T12:18:44;102401.38;;;15.70;32.33
58534;BME280;44109;52.398;7.024;2023-04-19T12:21:24;102396.28;;;15.76;32.36
58534;BME280;44109;52.398;7.024;2023-04-19T12:23:54;102396.97;;;16.08;33.32
58534;BME280;44109;52.398;7.024;2023-04-19T12:26:22;102372.66;;;15.73;32.98
58534;BME280;44109;52.398;7.024;2023-04-19T12:28:50;102365.59;;;15.79;33.12
58534;BME280;44109;52.398;7.024;2023-04-19T12:31:18;102372.94;;;16.07;34.14
58534;BME280;44109;52.398;7.024;2023-04-19T12:33:47;102381.44;;;16.10;33.15
58534;BME280;44109;52.398;7.024;2023-04-19T12:36:15;102374.28;;;15.74;32.90
58534;BME280;44109;52.398;7.024;2023-04-19T12:38:43;102368.25;;;15.91;33.86
58534;BME280;44109;52.398;7.024;2023-04-19T12:41:10;102360.16;;;15.86;34.61
58534;BME280;44109;52.398;7.024;2023-04-19T12:43:38;102351.53;;;16.37;34.00
58534;BME280;44109;52.398;7.024;2023-04-19T12:46:06;102360.53;;;16.69;33.89
58534;BME280;44109;52.398;7.024;2023-04-19T12:48:33;102355.44;;;16.75;32.76
58534;BME280;44109;52.398;7.024;2023-04-19T12:51:03;102345.50;;;17.04;32.46
58534;BME280;44109;52.398;7.024;2023-04-19T12:53:30;102340.28;;;16.80;32.84
58534;BME280;44109;52.398;7.024;2023-04-19T12:55:58;102327.31;;;17.21;32.40
58534;BME280;44109;52.398;7.024;2023-04-19T12:58:26;102337.56;;;17.10;30.60
58534;BME280;44109;52.398;7.024;2023-04-19T13:00:53;102346.34;;;17.35;31.66